Time;durP1;ratioP1;P1;durP2;ratioP2;P2;SDS_P1;SDS_P2;PMS_P1;PMS_P2;Temp;Humidity;BMP_temperature;BMP_pressure;BME280_temperature;BME280_humidity;BME280_pressure;Samples;Min_cycle;Max_cycle;Signal;HPM_P1;HPM_P2
2023/11/28 00:01:04;;;;;;;0.52;0.30;;;3.90;99.90;;;;;;7375649;19;20033;-68
2023/11/28 00:03:34;;;;;;;0.50;0.30;;;3.90;99.90;;;;;;7376353;19;20344;-68
2023/11/28 00:06:05;;;;;;;0.77;0.30;;;3.90;99.90;;;;;;7376684;19;20014;-69
2023/11/28 00:08:35;;;;;;;0.40;0.30;;;3.90;99.90;;;;;;7376138;19;20544;-69
2023/11/28 00:11:08;;;;;;;1.10;0.77;;;3.90;99.90;;;;;;7376431;19;20013;-68
2023/11/28 00:13:38;;;;;;;2.72;0.40;;;3.90;99.90;;;;;;7375634;19;20006;-68
2023/11/28 00:16:09;;;;;;;0.30;0.20;;;3.90;99.90;;;;;;7375472;19;20035;-68
2023/11/28 00:18:39;;;;;;;0.73;0.50;;;3.90;99.90;;;;;;7375444;19;20018;-69
2023/11/28 00:21:09;;;;;;;0.95;0.40;;;3.80;99.90;;;;;;7375374;19;20774;-69
2023/11/28 00:23:39;;;;;;;0.40;0.30;;;3.80;99.90;;;;;;7375629;19;20021;-68
2023/11/28 00:26:12;;;;;;;1.23;0.30;;;3.80;99.90;;;;;;7375009;19;20744;-69
2023/11/28 00:28:57;;;;;;;0.75;0.40;;;3.80;99.90;;;;;;7374000;19;20021;-69
2023/11/28 00:31:27;;;;;;;0.80;0.45;;;3.80;99.90;;;;;;7374780;19;20010;-69
2023/11/28 00:33:57;;;;;;;1.00;0.43;;;3.90;99.90;;;;;;7375917;19;20835;-68
2023/11/28 00:36:27;;;;;;;0.70;0.30;;;3.90;99.90;;;;;;7374182;19;20015;-69
2023/11/28 00:38:57;;;;;;;3.17;0.60;;;3.90;99.90;;;;;;7375125;19;20077;-70
2023/11/28 00:41:30;;;;;;;0.20;0.20;;;3.90;99.90;;;;;;7376475;19;20031;-69
2023/11/28 00:44:00;;;;;;;1.13;0.35;;;3.90;99.90;;;;;;7375923;19;20067;-69
2023/11/28 00:46:30;;;;;;;0.35;0.20;;;3.90;99.90;;;;;;7375234;19;20345;-69
2023/11/28 00:49:00;;;;;;;0.30;0.20;;;3.90;99.90;;;;;;7375556;19;20027;-69
2023/11/28 00:51:30;;;;;;;0.40;0.20;;;3.90;99.90;;;;;;7375894;19;20010;-70
2023/11/28 00:54:00;;;;;;;2.65;0.50;;;3.90;99.90;;;;;;7375784;19;20017;-69
2023/11/28 00:56:33;;;;;;;0.60;0.40;;;4.00;99.90;;;;;;7375106;19;20042;-69
2023/11/28 00:59:03;;;;;;;0.30;0.20;;;3.90;99.90;;;;;;7375349;19;20010;-69
2023/11/28 01:01:33;;;;;;;0.40;0.30;;;4.00;99.90;;;;;;7375670;19;20064;-69
2023/11/28 01:04:04;;;;;;;2.40;0.40;;;4.00;99.90;;;;;;7375544;19;20014;-70
2023/11/28 01:06:34;;;;;;;0.50;0.20;;;4.00;99.90;;;;;;7374393;19;20015;-71
2023/11/28 01:09:04;;;;;;;0.82;0.30;;;4.00;99.90;;;;;;7375173;19;20051;-69
2023/11/28 01:11:37;;;;;;;0.77;0.35;;;4.00;99.90;;;;;;7375391;19;20074;-69
2023/11/28 01:14:07;;;;;;;0.57;0.30;;;4.00;99.90;;;;;;7374895;19;20778;-70
2023/11/28 01:16:37;;;;;;;0.60;0.30;;;4.00;99.90;;;;;;7373729;19;20158;-69
2023/11/28 01:19:07;;;;;;;0.20;0.20;;;4.10;99.90;;;;;;7375392;19;20017;-69
2023/11/28 01:21:37;;;;;;;0.52;0.30;;;4.10;99.90;;;;;;7375318;19;20011;-70
2023/11/28 01:24:08;;;;;;;0.40;0.30;;;4.00;99.90;;;;;;7374347;19;20092;-69
2023/11/28 01:26:40;;;;;;;2.25;0.40;;;4.10;99.90;;;;;;7372075;19;20019;-70
2023/11/28 01:29:10;;;;;;;0.98;0.30;;;4.10;99.90;;;;;;7373688;19;20596;-69
2023/11/28 01:31:40;;;;;;;0.63;0.20;;;4.10;99.90;;;;;;7377347;19;20328;-69
2023/11/28 01:34:11;;;;;;;2.17;0.55;;;4.10;99.90;;;;;;7397660;19;20541;-69
2023/11/28 01:36:47;;;;;;;0.60;0.30;;;4.10;99.90;;;;;;7381093;19;20013;-69
2023/11/28 01:39:18;;;;;;;0.50;0.40;;;4.10;99.90;;;;;;7375664;19;20428;-70
2023/11/28 01:41:51;;;;;;;0.60;0.40;;;4.10;99.90;;;;;;7374673;19;20010;-69
2023/11/28 01:44:22;;;;;;;0.30;0.30;;;4.10;99.90;;;;;;7374318;19;20046;-69
2023/11/28 01:46:54;;;;;;;0.55;0.28;;;4.10;99.90;;;;;;7373764;19;20043;-69
2023/11/28 01:49:24;;;;;;;1.27;0.40;;;4.20;99.90;;;;;;7371890;19;20041;-70
2023/11/28 01:51:56;;;;;;;0.30;0.20;;;4.20;99.90;;;;;;7374107;19;20406;-69
2023/11/28 01:54:27;;;;;;;0.30;0.20;;;4.20;99.90;;;;;;7374932;19;20014;-69
2023/11/28 01:56:59;;;;;;;0.85;0.20;;;4.20;99.90;;;;;;7373050;19;20687;-70
2023/11/28 01:59:31;;;;;;;0.68;0.30;;;4.20;99.90;;;;;;7374065;19;20045;-71
2023/11/28 02:02:01;;;;;;;0.45;0.30;;;4.30;99.90;;;;;;7373674;19;20018;-70
2023/11/28 02:04:32;;;;;;;0.50;0.30;;;4.30;99.90;;;;;;7372535;19;20018;-69
2023/11/28 02:07:02;;;;;;;1.75;0.30;;;4.30;99.90;;;;;;7370402;19;20018;-69
2023/11/28 02:09:33;;;;;;;0.60;0.30;;;4.30;99.90;;;;;;7374579;19;20017;-70
2023/11/28 02:12:07;;;;;;;0.80;0.40;;;4.40;99.90;;;;;;7374782;19;20367;-69
2023/11/28 02:14:45;;;;;;;0.83;0.30;;;4.40;99.90;;;;;;7373707;19;20018;-69
2023/11/28 02:17:16;;;;;;;0.50;0.32;;;4.40;99.90;;;;;;7373057;19;20257;-70
2023/11/28 02:19:50;;;;;;;0.93;0.35;;;4.30;99.90;;;;;;7372406;19;20065;-70
2023/11/28 02:22:21;;;;;;;0.50;0.30;;;4.40;99.90;;;;;;7372736;19;20022;-69
2023/11/28 02:24:55;;;;;;;2.17;0.50;;;4.40;99.90;;;;;;7373627;19;20429;-69
2023/11/28 02:27:27;;;;;;;0.45;0.32;;;4.40;99.90;;;;;;7372579;19;20108;-69
2023/11/28 02:29:57;;;;;;;0.47;0.20;;;4.40;99.90;;;;;;7372176;19;20007;-69
2023/11/28 02:32:28;;;;;;;0.60;0.30;;;4.40;99.90;;;;;;7372877;19;20006;-70
2023/11/28 02:34:58;;;;;;;0.75;0.40;;;4.40;99.90;;;;;;7371712;19;20007;-69
2023/11/28 02:37:43;;;;;;;;;;;4.30;99.90;;;;;;7170537;19;2003973;-70
2023/11/28 02:40:14;;;;;;;2.20;0.43;;;4.30;99.90;;;;;;7380936;19;19919;-69
2023/11/28 02:42:46;;;;;;;0.95;0.55;;;4.40;99.90;;;;;;7379788;19;20050;-69
2023/11/28 02:45:16;;;;;;;0.50;0.30;;;4.40;99.90;;;;;;7377590;19;20026;-69
2023/11/28 02:47:47;;;;;;;0.57;0.40;;;4.40;99.90;;;;;;7378116;19;20017;-69
2023/11/28 02:50:17;;;;;;;0.43;0.30;;;4.40;99.90;;;;;;7378548;19;20106;-69
2023/11/28 02:52:47;;;;;;;1.55;0.32;;;4.30;99.90;;;;;;7378421;19;20026;-69
2023/11/28 02:55:18;;;;;;;2.88;0.77;;;4.30;99.90;;;;;;7378458;19;20025;-70
2023/11/28 02:57:51;;;;;;;0.68;0.40;;;4.40;99.90;;;;;;7378552;19;20015;-70
2023/11/28 03:00:22;;;;;;;1.03;0.50;;;4.40;99.90;;;;;;7378781;19;20019;-69
2023/11/28 03:02:52;;;;;;;0.82;0.50;;;4.40;99.90;;;;;;7378653;19;20498;-69
2023/11/28 03:05:22;;;;;;;1.23;0.68;;;4.50;99.90;;;;;;7378302;19;20137;-69
2023/11/28 03:07:53;;;;;;;1.02;0.50;;;4.50;99.90;;;;;;7379011;19;20077;-70
2023/11/28 03:10:23;;;;;;;1.95;0.50;;;4.50;99.90;;;;;;7378158;19;20352;-69
2023/11/28 03:12:55;;;;;;;0.70;0.50;;;4.40;99.90;;;;;;7379225;19;20017;-72
2023/11/28 03:15:26;;;;;;;1.58;0.70;;;4.40;99.90;;;;;;7376015;19;20025;-70
2023/11/28 03:17:56;;;;;;;2.00;0.50;;;4.50;99.90;;;;;;7378065;19;20014;-70
2023/11/28 03:20:26;;;;;;;0.90;0.70;;;4.50;99.90;;;;;;7378592;19;20303;-70
2023/11/28 03:22:56;;;;;;;0.90;0.70;;;4.50;99.90;;;;;;7377164;19;20018;-70
2023/11/28 03:25:26;;;;;;;1.33;0.68;;;4.50;99.90;;;;;;7374862;19;20011;-70
2023/11/28 03:27:59;;;;;;;2.25;0.80;;;4.50;99.90;;;;;;7377498;19;20019;-69
2023/11/28 03:30:29;;;;;;;2.83;0.60;;;4.50;99.90;;;;;;7377822;19;20014;-68
2023/11/28 03:32:59;;;;;;;0.95;0.50;;;4.50;99.90;;;;;;7377622;19;20011;-70
2023/11/28 03:35:29;;;;;;;1.55;0.65;;;4.50;99.90;;;;;;7376759;19;20357;-70
2023/11/28 03:38:02;;;;;;;1.00;0.80;;;4.50;99.90;;;;;;7378291;19;20028;-70
2023/11/28 03:40:32;;;;;;;2.10;0.60;;;4.50;99.90;;;;;;7378386;19;20371;-70
2023/11/28 03:43:05;;;;;;;0.90;0.60;;;4.50;99.90;;;;;;7377477;19;20018;-70
2023/11/28 03:45:35;;;;;;;0.85;0.50;;;4.50;99.90;;;;;;7377156;19;20327;-70
2023/11/28 03:48:05;;;;;;;0.73;0.45;;;4.50;99.90;;;;;;7378004;19;20040;-70
2023/11/28 03:50:35;;;;;;;0.77;0.50;;;4.50;99.90;;;;;;7377910;19;20013;-70
2023/11/28 03:53:06;;;;;;;0.60;0.50;;;4.50;99.90;;;;;;7377564;19;20025;-70
2023/11/28 03:55:37;;;;;;;1.02;0.60;;;4.50;99.90;;;;;;7374554;19;20344;-70
2023/11/28 03:58:09;;;;;;;0.80;0.52;;;4.50;99.90;;;;;;7393458;19;20006;-67
2023/11/28 04:00:39;;;;;;;0.75;0.50;;;4.50;99.90;;;;;;7392220;19;20015;-68
2023/11/28 04:03:09;;;;;;;0.60;0.40;;;4.50;99.90;;;;;;7376644;19;20082;-68
2023/11/28 04:05:40;;;;;;;0.93;0.50;;;4.50;99.90;;;;;;7376306;19;20010;-69
2023/11/28 04:08:10;;;;;;;1.60;0.50;;;4.50;99.90;;;;;;7377116;19;20017;-69
2023/11/28 04:10:41;;;;;;;0.93;0.88;;;4.50;99.90;;;;;;7376504;19;20474;-69
2023/11/28 04:13:14;;;;;;;1.00;0.60;;;4.50;99.90;;;;;;7376809;19;20105;-68
2023/11/28 04:15:44;;;;;;;0.68;0.40;;;4.50;99.90;;;;;;7373493;19;20014;-69
2023/11/28 04:18:15;;;;;;;2.10;0.57;;;4.50;99.90;;;;;;7376994;19;20014;-68
2023/11/28 04:20:45;;;;;;;2.28;0.50;;;4.50;99.90;;;;;;7376399;19;20101;-69
2023/11/28 04:23:15;;;;;;;1.02;0.68;;;4.50;99.90;;;;;;7375417;19;20011;-69
2023/11/28 04:25:46;;;;;;;4.65;0.88;;;4.40;99.90;;;;;;7374989;19;20003;-68
2023/11/28 04:28:20;;;;;;;0.50;0.40;;;4.50;99.90;;;;;;7374417;19;20133;-69
2023/11/28 04:30:51;;;;;;;0.82;0.60;;;4.40;99.90;;;;;;7374288;19;20078;-69
2023/11/28 04:33:21;;;;;;;1.75;0.77;;;4.50;99.90;;;;;;7376579;19;20079;-70
2023/11/28 04:35:51;;;;;;;1.83;0.55;;;4.50;99.90;;;;;;7374135;19;20035;-69
2023/11/28 04:38:21;;;;;;;0.98;0.60;;;4.50;99.90;;;;;;7374523;19;20014;-70
2023/11/28 04:40:52;;;;;;;0.82;0.60;;;4.50;99.90;;;;;;7372642;19;20406;-69
2023/11/28 04:43:24;;;;;;;4.25;0.95;;;4.50;99.90;;;;;;7375559;19;20014;-69
2023/11/28 04:45:56;;;;;;;0.80;0.47;;;4.40;99.90;;;;;;7376216;19;20020;-69
2023/11/28 04:48:26;;;;;;;0.73;0.45;;;4.40;99.90;;;;;;7377338;19;20035;-69
2023/11/28 04:50:55;;;;;;;0.70;0.47;;;4.50;99.90;;;;;;7376393;19;20010;-69
2023/11/28 04:53:26;;;;;;;1.85;0.63;;;4.50;99.90;;;;;;7376672;19;20043;-69
2023/11/28 04:55:56;;;;;;;1.25;0.30;;;4.50;99.90;;;;;;7375327;19;20660;-70
2023/11/28 04:58:29;;;;;;;0.75;0.35;;;4.40;99.90;;;;;;7378164;19;20015;-69
2023/11/28 05:00:59;;;;;;;0.47;0.40;;;4.50;99.90;;;;;;7372895;19;20018;-70
2023/11/28 05:03:29;;;;;;;2.17;0.80;;;4.60;99.90;;;;;;7377606;19;20015;-70
2023/11/28 05:06:00;;;;;;;0.88;0.80;;;4.70;99.90;;;;;;7375826;19;20015;-70
2023/11/28 05:08:30;;;;;;;1.65;0.88;;;4.70;99.90;;;;;;7375854;19;20010;-70
2023/11/28 05:11:05;;;;;;;1.60;1.27;;;4.80;99.90;;;;;;7375827;19;20042;-70
2023/11/28 05:13:38;;;;;;;2.05;1.40;;;4.80;99.90;;;;;;7370381;19;20086;-68
2023/11/28 05:16:09;;;;;;;1.42;1.33;;;4.90;99.90;;;;;;7373315;19;20618;-69
2023/11/28 05:18:39;;;;;;;2.10;1.40;;;4.90;99.90;;;;;;7375251;19;20107;-69
2023/11/28 05:21:09;;;;;;;1.52;1.42;;;4.90;99.90;;;;;;7375188;19;20015;-69
2023/11/28 05:23:46;;;;;;;2.25;2.03;;;4.90;99.90;;;;;;7374953;19;20006;-69
2023/11/28 05:26:17;;;;;;;2.17;1.90;;;4.90;99.90;;;;;;7375376;19;20014;-68
2023/11/28 05:28:51;;;;;;;2.38;2.00;;;4.90;99.90;;;;;;7376174;19;20015;-69
2023/11/28 05:31:21;;;;;;;2.50;2.20;;;4.90;99.90;;;;;;7373708;19;20010;-69
2023/11/28 05:33:52;;;;;;;2.45;2.25;;;4.90;99.90;;;;;;7373919;19;20030;-69
2023/11/28 05:36:23;;;;;;;2.50;2.30;;;4.90;99.90;;;;;;7375326;19;20055;-69
2023/11/28 05:38:53;;;;;;;3.20;2.80;;;4.90;99.90;;;;;;7376200;19;20121;-69
2023/11/28 05:41:23;;;;;;;3.10;2.80;;;4.80;99.90;;;;;;7376294;19;20022;-69
2023/11/28 05:43:57;;;;;;;3.42;2.90;;;4.80;99.90;;;;;;7374693;19;20471;-69
2023/11/28 05:46:28;;;;;;;4.63;3.45;;;4.80;99.90;;;;;;7375638;19;20010;-69
2023/11/28 05:48:59;;;;;;;5.18;3.15;;;4.80;99.90;;;;;;7376332;19;20018;-69
2023/11/28 05:51:31;;;;;;;4.25;3.63;;;4.70;99.90;;;;;;7376875;19;20663;-70
2023/11/28 05:54:01;;;;;;;6.65;4.97;;;4.70;99.90;;;;;;7377341;19;20040;-68
2023/11/28 05:56:32;;;;;;;13.27;8.27;;;4.70;99.90;;;;;;7373796;19;20002;-70
2023/11/28 05:59:05;;;;;;;6.47;4.15;;;4.70;99.90;;;;;;7375267;19;20074;-70
2023/11/28 06:01:36;;;;;;;4.57;3.67;;;4.60;99.90;;;;;;7377050;19;20023;-69
2023/11/28 06:04:07;;;;;;;5.28;3.97;;;4.50;99.90;;;;;;7376665;19;20015;-68
2023/11/28 06:06:38;;;;;;;4.85;3.70;;;4.40;99.90;;;;;;7376350;19;20041;-69
2023/11/28 06:09:10;;;;;;;4.10;3.47;;;4.40;99.90;;;;;;7375873;19;20089;-70
2023/11/28 06:11:40;;;;;;;4.65;3.15;;;4.40;99.90;;;;;;7375812;19;20522;-67
2023/11/28 06:14:13;;;;;;;3.90;3.08;;;4.40;99.90;;;;;;7382872;19;20014;-68
2023/11/28 06:16:43;;;;;;;1.70;1.60;;;4.30;99.90;;;;;;7380505;19;20106;-67
2023/11/28 06:19:13;;;;;;;2.15;1.25;;;4.10;99.90;;;;;;7382325;19;20026;-67
2023/11/28 06:21:46;;;;;;;1.30;1.20;;;4.00;99.90;;;;;;7389337;19;20014;-69
2023/11/28 06:24:16;;;;;;;1.40;1.10;;;3.90;99.90;;;;;;7394285;19;20014;-69
2023/11/28 06:26:46;;;;;;;1.88;1.02;;;3.80;99.90;;;;;;7383516;19;20510;-67
2023/11/28 06:29:19;;;;;;;0.65;0.57;;;3.70;99.90;;;;;;7382920;19;20021;-67
2023/11/28 06:31:49;;;;;;;1.30;0.70;;;3.50;99.90;;;;;;7383290;19;20010;-68
2023/11/28 06:34:19;;;;;;;1.33;0.80;;;3.40;99.90;;;;;;7382336;19;20010;-68
2023/11/28 06:36:49;;;;;;;1.67;1.17;;;3.30;99.90;;;;;;7381587;19;20007;-67
2023/11/28 06:39:23;;;;;;;2.25;1.20;;;3.30;99.90;;;;;;7381930;19;20092;-68
2023/11/28 06:41:53;;;;;;;1.63;1.40;;;3.20;99.90;;;;;;7381884;19;20022;-68
2023/11/28 06:44:27;;;;;;;1.80;1.38;;;3.10;99.90;;;;;;7382353;19;20644;-69
2023/11/28 06:46:57;;;;;;;1.50;1.40;;;2.80;99.90;;;;;;7382037;19;20454;-69
2023/11/28 06:49:27;;;;;;;2.28;1.30;;;2.80;99.90;;;;;;7381518;19;20074;-67
2023/11/28 06:51:57;;;;;;;1.33;1.23;;;2.70;99.90;;;;;;7380854;19;20014;-67
2023/11/28 06:54:28;;;;;;;1.73;1.55;;;2.60;99.90;;;;;;7380915;19;20006;-69
2023/11/28 06:56:58;;;;;;;2.25;1.63;;;2.40;99.90;;;;;;7379953;19;20014;-69
2023/11/28 06:59:31;;;;;;;1.77;1.67;;;2.40;99.90;;;;;;7381475;19;20411;-69
2023/11/28 07:02:01;;;;;;;2.67;2.42;;;2.30;99.90;;;;;;7380716;19;20449;-69
2023/11/28 07:04:31;;;;;;;2.75;2.40;;;2.50;99.90;;;;;;7380659;19;20673;-67
2023/11/28 07:07:01;;;;;;;2.92;2.63;;;2.40;99.90;;;;;;7382250;19;20035;-68
2023/11/28 07:09:31;;;;;;;7.40;2.53;;;2.40;99.90;;;;;;7381360;19;20011;-68
2023/11/28 07:12:01;;;;;;;3.30;2.00;;;2.40;99.90;;;;;;7379876;19;20017;-69
2023/11/28 07:14:34;;;;;;;2.45;2.10;;;2.30;99.90;;;;;;7379939;19;20035;-68
2023/11/28 07:17:04;;;;;;;2.40;2.20;;;2.40;99.90;;;;;;7378807;19;20054;-69
2023/11/28 07:19:34;;;;;;;2.25;1.98;;;2.30;99.90;;;;;;7378283;19;20023;-70
2023/11/28 07:22:04;;;;;;;2.35;2.00;;;2.30;99.90;;;;;;7379336;19;20030;-68
2023/11/28 07:24:34;;;;;;;2.50;2.30;;;2.20;99.90;;;;;;7377277;19;20022;-67
2023/11/28 07:27:04;;;;;;;2.20;2.00;;;2.20;99.90;;;;;;7378259;19;20015;-68
2023/11/28 07:29:37;;;;;;;3.38;2.42;;;2.20;99.90;;;;;;7379232;19;20018;-67
2023/11/28 07:32:08;;;;;;;2.78;2.58;;;2.20;99.90;;;;;;7379895;19;20010;-67
2023/11/28 07:34:38;;;;;;;3.33;2.75;;;2.10;99.90;;;;;;7378701;19;20017;-68
2023/11/28 07:37:08;;;;;;;3.45;2.78;;;2.10;99.90;;;;;;7379119;19;20010;-67
2023/11/28 07:39:38;;;;;;;2.28;2.08;;;2.10;99.90;;;;;;7380373;19;20093;-69
2023/11/28 07:42:08;;;;;;;3.25;2.95;;;2.10;99.90;;;;;;7378280;19;20409;-68
2023/11/28 07:44:41;;;;;;;2.90;2.70;;;2.10;99.90;;;;;;7379522;19;20006;-68
2023/11/28 07:47:11;;;;;;;3.28;2.97;;;2.00;99.90;;;;;;7375060;19;20018;-68
2023/11/28 07:49:45;;;;;;;2.35;2.13;;;2.00;99.90;;;;;;7379490;19;20337;-68
2023/11/28 07:52:15;;;;;;;2.67;2.47;;;2.00;99.90;;;;;;7378567;19;20026;-69
2023/11/28 07:54:45;;;;;;;2.92;2.72;;;1.90;99.90;;;;;;7378557;19;20397;-68
2023/11/28 07:57:15;;;;;;;3.00;2.67;;;1.90;99.90;;;;;;7378933;19;20031;-68
2023/11/28 07:59:48;;;;;;;3.72;3.25;;;1.90;99.90;;;;;;7379198;19;20090;-67
2023/11/28 08:02:18;;;;;;;4.32;3.78;;;1.90;99.90;;;;;;7378561;19;20483;-68
2023/11/28 08:04:48;;;;;;;3.47;3.17;;;1.90;99.90;;;;;;7377156;19;20122;-70
2023/11/28 08:07:19;;;;;;;3.38;3.08;;;1.90;99.90;;;;;;7378099;19;20014;-68
2023/11/28 08:09:49;;;;;;;3.22;2.92;;;1.90;99.90;;;;;;7378109;19;20012;-68
2023/11/28 08:12:19;;;;;;;3.80;3.50;;;1.90;99.90;;;;;;7378708;19;20031;-68
2023/11/28 08:14:51;;;;;;;3.70;3.40;;;1.80;99.90;;;;;;7377233;19;20301;-68
2023/11/28 08:17:21;;;;;;;3.72;2.75;;;1.90;99.90;;;;;;7378742;19;20010;-68
2023/11/28 08:19:52;;;;;;;4.78;3.42;;;1.80;99.90;;;;;;7376512;19;20012;-68
2023/11/28 08:22:22;;;;;;;3.90;3.60;;;1.90;99.90;;;;;;7378522;19;20010;-68
2023/11/28 08:24:53;;;;;;;3.95;3.50;;;1.80;99.90;;;;;;7378137;19;20321;-67
2023/11/28 08:27:25;;;;;;;4.35;3.65;;;1.80;99.90;;;;;;7379166;19;20017;-68
2023/11/28 08:29:58;;;;;;;4.30;3.58;;;1.80;99.90;;;;;;7378523;19;20089;-68
2023/11/28 08:32:32;;;;;;;5.25;4.75;;;1.80;99.90;;;;;;7378292;19;20002;-68
2023/11/28 08:35:03;;;;;;;5.15;4.40;;;1.80;99.90;;;;;;7376852;19;20016;-68
2023/11/28 08:37:34;;;;;;;3.92;3.53;;;1.80;99.90;;;;;;7378820;19;20450;-68
2023/11/28 08:40:05;;;;;;;4.20;3.80;;;1.80;99.90;;;;;;7377913;19;20018;-69
2023/11/28 08:42:35;;;;;;;4.18;3.78;;;1.80;99.90;;;;;;7378128;19;20017;-69
2023/11/28 08:45:09;;;;;;;3.92;3.50;;;1.80;99.90;;;;;;7382001;19;20047;-68
2023/11/28 08:47:40;;;;;;;3.67;3.28;;;1.80;99.90;;;;;;7391675;19;20006;-68
2023/11/28 08:50:12;;;;;;;3.80;3.38;;;1.80;99.90;;;;;;7380624;19;20005;-68
2023/11/28 08:52:42;;;;;;;4.32;3.22;;;1.80;99.90;;;;;;7372789;19;20013;-69
2023/11/28 08:55:12;;;;;;;3.75;3.45;;;1.80;99.90;;;;;;7376797;19;20382;-68
2023/11/28 08:57:42;;;;;;;3.67;2.97;;;1.80;99.90;;;;;;7377291;19;20018;-68
2023/11/28 09:00:16;;;;;;;3.45;3.15;;;1.80;99.90;;;;;;7378168;19;20036;-68
2023/11/28 09:02:46;;;;;;;4.45;2.92;;;1.80;99.90;;;;;;7377728;19;20023;-68
2023/11/28 09:05:17;;;;;;;3.45;2.45;;;1.80;99.90;;;;;;7376473;19;20010;-68
2023/11/28 09:07:47;;;;;;;2.25;2.05;;;1.80;99.90;;;;;;7377753;19;20006;-68
2023/11/28 09:10:15;;;;;;;3.00;2.30;;;1.80;99.90;;;;;;7377724;19;20017;-68
2023/11/28 09:12:47;;;;;;;3.33;2.78;;;1.80;99.90;;;;;;7376494;19;20040;-67
2023/11/28 09:15:20;;;;;;;2.20;1.75;;;1.80;99.90;;;;;;7375474;19;20017;-68
2023/11/28 09:17:50;;;;;;;2.22;1.77;;;1.80;97.90;;;;;;7374011;19;20115;-67
2023/11/28 09:20:20;;;;;;;2.08;1.60;;;1.80;99.90;;;;;;7376941;19;20018;-68
2023/11/28 09:22:50;;;;;;;2.05;1.85;;;1.80;99.90;;;;;;7375013;19;20094;-68
2023/11/28 09:25:20;;;;;;;2.15;1.88;;;1.80;99.90;;;;;;7375936;19;20015;-68
2023/11/28 09:27:50;;;;;;;1.73;1.58;;;1.90;97.20;;;;;;7376130;19;20010;-68
2023/11/28 09:30:25;;;;;;;1.60;1.45;;;1.80;82.00;;;;;;7375052;19;20486;-69
2023/11/28 09:32:56;;;;;;;2.30;1.63;;;1.90;91.90;;;;;;7375482;19;20081;-73
2023/11/28 09:35:27;;;;;;;1.90;1.70;;;1.90;94.80;;;;;;7376717;19;20014;-73
2023/11/28 09:37:57;;;;;;;1.70;1.60;;;1.80;98.40;;;;;;7377041;19;20014;-73
2023/11/28 09:40:27;;;;;;;2.25;1.85;;;1.80;99.90;;;;;;7376442;19;20008;-73
2023/11/28 09:42:59;;;;;;;2.05;1.73;;;1.70;99.90;;;;;;7377073;19;20003;-70
2023/11/28 09:45:31;;;;;;;1.85;1.67;;;1.70;99.90;;;;;;7374077;19;20013;-69
2023/11/28 09:48:06;;;;;;;2.38;1.88;;;1.80;99.90;;;;;;7375415;19;20022;-69
2023/11/28 09:50:38;;;;;;;2.00;1.80;;;1.60;99.90;;;;;;7375686;19;20007;-70
2023/11/28 09:53:10;;;;;;;3.00;1.63;;;1.70;99.90;;;;;;7373960;19;20033;-69
2023/11/28 09:55:40;;;;;;;3.28;1.80;;;1.70;99.90;;;;;;7375096;19;20364;-69
2023/11/28 09:58:11;;;;;;;1.90;1.60;;;1.60;99.90;;;;;;7376481;19;20070;-69
2023/11/28 10:00:44;;;;;;;3.38;1.77;;;1.60;99.90;;;;;;7374705;19;20046;-69
2023/11/28 10:03:14;;;;;;;2.95;2.00;;;1.60;99.90;;;;;;7374875;19;20034;-69
2023/11/28 10:05:49;;;;;;;2.83;2.35;;;1.60;99.90;;;;;;7373097;19;20011;-69
2023/11/28 10:08:19;;;;;;;1.63;1.52;;;1.70;99.90;;;;;;7375630;19;20465;-69
2023/11/28 10:10:49;;;;;;;2.25;2.05;;;1.60;99.90;;;;;;7376939;19;20040;-69
2023/11/28 10:13:19;;;;;;;3.13;2.10;;;1.60;99.90;;;;;;7375409;19;20026;-69
2023/11/28 10:15:54;;;;;;;2.33;1.98;;;1.60;99.90;;;;;;7372365;19;20014;-68
2023/11/28 10:18:24;;;;;;;2.47;2.28;;;1.70;99.90;;;;;;7375186;19;20087;-69
2023/11/28 10:20:55;;;;;;;3.13;1.88;;;1.70;99.90;;;;;;7374952;19;20462;-69
2023/11/28 10:23:26;;;;;;;2.78;2.40;;;1.60;99.90;;;;;;7375031;19;20511;-69
2023/11/28 10:25:57;;;;;;;2.53;2.22;;;1.70;99.90;;;;;;7375105;19;20071;-69
2023/11/28 10:28:27;;;;;;;3.25;1.70;;;1.70;99.90;;;;;;7375177;19;20006;-69
2023/11/28 10:31:00;;;;;;;2.45;2.25;;;1.60;99.10;;;;;;7376083;19;20082;-68
2023/11/28 10:33:30;;;;;;;3.45;2.28;;;1.70;97.50;;;;;;7375247;19;20039;-69
2023/11/28 10:36:00;;;;;;;3.13;2.70;;;1.70;93.50;;;;;;7373805;19;20017;-69
2023/11/28 10:38:30;;;;;;;3.22;2.92;;;1.70;96.90;;;;;;7375033;19;20007;-69
2023/11/28 10:41:00;;;;;;;2.50;2.00;;;1.90;99.90;;;;;;7374760;19;20014;-68
2023/11/28 10:43:31;;;;;;;3.47;2.90;;;1.70;64.20;;;;;;7374836;19;20010;-69
2023/11/28 10:46:07;;;;;;;3.72;2.80;;;1.70;75.60;;;;;;7374549;19;20006;-68
2023/11/28 10:48:38;;;;;;;3.50;2.92;;;1.80;59.20;;;;;;7374827;19;20006;-68
2023/11/28 10:51:12;;;;;;;3.00;2.70;;;1.80;61.50;;;;;;7374698;19;20339;-69
2023/11/28 10:53:44;;;;;;;5.80;3.37;;;1.60;23.50;;;;;;7373127;19;20038;-68
2023/11/28 10:56:17;;;;;;;6.03;3.95;;;1.60;29.00;;;;;;7372360;19;20011;-69
2023/11/28 10:58:49;;;;;;;5.25;3.72;;;1.70;23.80;;;;;;7374508;19;20007;-69
2023/11/28 11:01:22;;;;;;;2.97;2.53;;;1.70;16.80;;;;;;7382114;19;20007;-68
2023/11/28 11:03:52;;;;;;;2.35;1.95;;;1.60;4.80;;;;;;7380070;19;20018;-69
2023/11/28 11:06:23;;;;;;;3.72;3.10;;;1.60;4.70;;;;;;7381366;19;20455;-69
2023/11/28 11:08:55;;;;;;;3.92;3.47;;;1.60;11.10;;;;;;7395507;19;20014;-68
2023/11/28 11:11:26;;;;;;;3.65;3.25;;;1.60;2.50;;;;;;7394356;19;20022;-68
2023/11/28 11:14:02;;;;;;;4.32;3.88;;;1.50;1.00;;;;;;7380391;19;20033;-68
2023/11/28 11:16:40;;;;;;;4.43;3.97;;;1.50;7.20;;;;;;7380353;19;20617;-68
2023/11/28 11:19:11;;;;;;;4.80;4.03;;;1.60;8.40;;;;;;7380659;19;20034;-69
2023/11/28 11:21:48;;;;;;;3.92;3.30;;;1.60;10.30;;;;;;7380493;19;20467;-68
2023/11/28 11:24:19;;;;;;;4.95;3.45;;;1.50;3.90;;;;;;7376884;19;20482;-68
2023/11/28 11:26:49;;;;;;;3.80;3.17;;;1.50;10.00;;;;;;7379529;19;20402;-68
2023/11/28 11:29:39;;;;;;;3.70;3.28;;;1.50;3.70;;;;;;7380653;19;20018;-69
2023/11/28 11:32:18;;;;;;;4.57;3.75;;;1.50;5.20;;;;;;7176771;19;2003874;-69
2023/11/28 11:34:50;;;;;;;3.95;3.55;;;1.50;11.10;;;;;;7379617;19;20010;-69
2023/11/28 11:37:21;;;;;;;3.80;3.35;;;1.50;7.20;;;;;;7378551;19;20016;-69
2023/11/28 11:39:53;;;;;;;4.10;3.70;;;1.50;11.10;;;;;;7381203;19;20370;-68
2023/11/28 11:42:26;;;;;;;6.05;4.63;;;1.50;4.40;;;;;;7378839;19;20010;-69
2023/11/28 11:45:00;;;;;;;5.07;4.15;;;1.50;5.40;;;;;;7378482;19;20045;-69
2023/11/28 11:47:36;;;;;;;4.45;3.38;;;1.50;6.90;;;;;;7380352;19;20454;-69
2023/11/28 11:50:09;;;;;;;4.22;3.83;;;1.50;1.80;;;;;;7380110;19;20018;-69
2023/11/28 11:52:41;;;;;;;6.07;3.90;;;1.60;9.40;;;;;;7379254;19;20074;-69
2023/11/28 11:55:14;;;;;;;4.60;3.83;;;1.50;1.00;;;;;;7376498;19;20039;-68
2023/11/28 11:57:46;;;;;;;4.78;4.05;;;1.60;6.20;;;;;;7379647;19;20010;-68
2023/11/28 12:00:17;;;;;;;4.82;3.53;;;1.50;7.00;;;;;;7380193;19;20039;-69
2023/11/28 12:02:50;;;;;;;4.57;3.72;;;1.50;1.00;;;;;;7378946;19;20077;-68
2023/11/28 12:05:20;;;;;;;4.78;3.45;;;1.60;5.50;;;;;;7377772;19;20021;-67
2023/11/28 12:07:51;;;;;;;4.53;3.47;;;1.60;12.30;;;;;;7379154;19;20018;-69
2023/11/28 12:10:21;;;;;;;5.45;4.38;;;1.50;7.40;;;;;;7377992;19;20014;-68
2023/11/28 12:12:51;;;;;;;7.70;3.63;;;1.50;1.00;;;;;;7376855;19;20033;-69
2023/11/28 12:15:21;;;;;;;4.47;3.58;;;1.60;5.70;;;;;;7377486;19;20041;-69
2023/11/28 12:18:09;;;;;;;4.70;3.72;;;1.50;2.70;;;;;;7378064;19;20010;-68
2023/11/28 12:20:40;;;;;;;3.95;3.42;;;1.50;5.90;;;;;;7173442;19;2003871;-68
2023/11/28 12:23:11;;;;;;;3.63;3.30;;;1.60;13.20;;;;;;7378163;19;20003;-68
2023/11/28 12:25:41;;;;;;;4.47;3.38;;;1.50;7.70;;;;;;7378223;19;20663;-68
2023/11/28 12:28:13;;;;;;;4.68;3.78;;;1.50;6.80;;;;;;7378960;19;20006;-69
2023/11/28 12:30:44;;;;;;;4.22;3.38;;;1.50;15.60;;;;;;7377701;19;20006;-68
2023/11/28 12:33:17;;;;;;;4.25;3.70;;;1.50;12.80;;;;;;7377932;19;20022;-68
2023/11/28 12:35:49;;;;;;;4.03;3.28;;;1.50;17.90;;;;;;7378633;19;20105;-68
2023/11/28 12:38:20;;;;;;;4.22;3.67;;;1.50;14.40;;;;;;7377935;19;20086;-68
2023/11/28 12:40:53;;;;;;;5.47;4.33;;;1.50;17.70;;;;;;7374500;19;20079;-68
2023/11/28 12:43:31;;;;;;;6.68;5.05;;;1.40;15.80;;;;;;7377892;19;20070;-68
2023/11/28 12:46:01;;;;;;;6.65;5.03;;;1.40;24.30;;;;;;7377794;19;20006;-68
2023/11/28 12:48:34;;;;;;;5.65;4.97;;;1.40;25.20;;;;;;7379868;19;20051;-68
2023/11/28 12:51:04;;;;;;;5.47;4.53;;;1.30;29.30;;;;;;7377634;19;20045;-68
2023/11/28 12:53:36;;;;;;;6.03;4.72;;;1.30;28.50;;;;;;7378303;19;20519;-69
2023/11/28 12:56:09;;;;;;;6.63;4.70;;;1.30;32.50;;;;;;7377998;19;20006;-70
2023/11/28 12:58:39;;;;;;;5.15;4.25;;;1.30;27.50;;;;;;7377538;19;20019;-68
2023/11/28 13:01:10;;;;;;;5.22;4.40;;;1.30;23.20;;;;;;7378533;19;20356;-69
2023/11/28 13:03:43;;;;;;;5.30;4.22;;;1.30;27.00;;;;;;7377762;19;20146;-69
2023/11/28 13:06:14;;;;;;;6.65;4.53;;;1.30;21.20;;;;;;7377327;19;20018;-68
2023/11/28 13:08:43;;;;;;;6.78;5.35;;;1.20;20.50;;;;;;7377013;19;20379;-68
2023/11/28 13:11:13;;;;;;;6.13;5.25;;;1.30;19.50;;;;;;7376778;19;20364;-68
2023/11/28 13:13:43;;;;;;;4.97;4.45;;;1.30;22.90;;;;;;7375666;19;20463;-68
2023/11/28 13:16:14;;;;;;;7.82;5.15;;;1.20;17.10;;;;;;7376790;19;20054;-68
2023/11/28 13:18:47;;;;;;;6.75;5.90;;;1.30;19.50;;;;;;7378986;19;20629;-69